Time;durP1;ratioP1;P1;durP2;ratioP2;P2;SDS_P1;SDS_P2;PMS_P1;PMS_P2;Temp;Humidity;BMP_temperature;BMP_pressure;BME280_temperature;BME280_humidity;BME280_pressure;Samples;Min_cycle;Max_cycle;Signal;HPM_P1;HPM_P2
2021/10/17 00:02:23;;;;;;;0.30;0.20;;;;;;;5.69;100.00;100704.56;5017062;28;20527;-50
2021/10/17 00:04:50;;;;;;;0.30;0.20;;;;;;;5.81;100.00;100716.84;5017871;28;20896;-49
2021/10/17 00:07:17;;;;;;;0.30;0.20;;;;;;;5.90;100.00;100714.22;5000968;28;20453;-49
2021/10/17 00:09:43;;;;;;;0.30;0.20;;;;;;;5.97;100.00;100709.78;5029252;28;20451;-49
2021/10/17 00:12:11;;;;;;;0.30;0.20;;;;;;;5.93;100.00;100712.44;5018303;28;20483;-49
2021/10/17 00:14:39;;;;;;;0.30;0.20;;;;;;;5.89;100.00;100715.03;5015114;28;20454;-49
2021/10/17 00:17:06;;;;;;;0.30;0.20;;;;;;;5.87;100.00;100715.06;5018803;28;20506;-48
2021/10/17 00:19:33;;;;;;;0.30;0.20;;;;;;;5.89;100.00;100717.69;5024019;28;20496;-49
2021/10/17 00:22:00;;;;;;;0.30;0.20;;;;;;;5.91;100.00;100715.97;5013408;28;21059;-49
2021/10/17 00:24:26;;;;;;;0.30;0.20;;;;;;;5.85;100.00;100713.31;5014819;28;20452;-50
2021/10/17 00:26:53;;;;;;;0.30;0.20;;;;;;;5.85;100.00;100716.81;5026930;28;20445;-48
2021/10/17 00:29:20;;;;;;;0.30;0.20;;;;;;;5.86;100.00;100713.31;5013986;28;20444;-48
2021/10/17 00:31:46;;;;;;;0.30;0.20;;;;;;;5.73;100.00;100706.28;4996377;28;20464;-49
2021/10/17 00:34:13;;;;;;;0.30;0.20;;;;;;;5.79;100.00;100711.56;5024385;28;20546;-50
2021/10/17 00:36:40;;;;;;;0.30;0.20;;;;;;;5.76;100.00;100711.59;5015222;28;20461;-49
2021/10/17 00:39:07;;;;;;;0.30;0.20;;;;;;;5.71;100.00;100717.75;5002822;28;20517;-49
2021/10/17 00:41:33;;;;;;;0.30;0.20;;;;;;;5.74;100.00;100715.09;5003116;28;20986;-49
2021/10/17 00:44:02;;;;;;;0.30;0.20;;;;;;;5.59;100.00;100708.09;5005059;28;20487;-49
2021/10/17 00:46:29;;;;;;;0.40;0.33;;;;;;;5.58;100.00;100714.25;5026245;28;20460;-49
2021/10/17 00:48:56;;;;;;;0.30;0.20;;;;;;;5.58;100.00;100708.97;5015321;28;20946;-49
2021/10/17 00:51:23;;;;;;;0.30;0.20;;;;;;;5.54;100.00;100707.22;5027910;28;20506;-49
2021/10/17 00:53:49;;;;;;;0.30;0.20;;;;;;;5.47;100.00;100700.19;5024227;28;20951;-49
2021/10/17 00:56:18;;;;;;;0.30;0.20;;;;;;;5.48;100.00;100705.50;5006313;28;20497;-49
2021/10/17 00:58:45;;;;;;;0.30;0.20;;;;;;;5.36;100.00;100710.78;5023016;28;20515;-49
2021/10/17 01:01:11;;;;;;;4.93;2.67;;;;;;;5.39;100.00;100704.59;5016730;28;20478;-49
2021/10/17 01:03:38;;;;;;;0.30;0.20;;;;;;;5.23;100.00;100704.63;5020849;28;20843;-49
2021/10/17 01:06:09;;;;;;;0.30;0.20;;;;;;;5.27;100.00;100698.47;5015803;28;20507;-50
2021/10/17 01:08:36;;;;;;;1.07;1.07;;;;;;;5.23;100.00;100701.09;5036318;28;20439;-50
2021/10/17 01:11:02;;;;;;;0.30;0.20;;;;;;;5.09;100.00;100694.97;5003320;28;20478;-50
2021/10/17 01:13:30;;;;;;;0.30;0.20;;;;;;;5.14;100.00;100699.34;5017636;28;20503;-49
2021/10/17 01:15:57;;;;;;;0.30;0.20;;;;;;;5.13;100.00;100697.59;5038727;28;20562;-50
2021/10/17 01:18:25;;;;;;;0.30;0.20;;;;;;;5.10;100.00;100696.72;5021540;28;20491;-49
2021/10/17 01:20:52;;;;;;;0.30;0.20;;;;;;;5.20;100.00;100696.69;5046878;23;20476;-53
2021/10/17 01:23:20;;;;;;;0.30;0.20;;;;;;;5.26;100.00;100691.44;5070001;28;20476;-53
2021/10/17 01:25:48;;;;;;;0.30;0.20;;;;;;;5.18;100.00;100694.94;5059533;28;20486;-52
2021/10/17 01:28:15;;;;;;;0.30;0.20;;;;;;;5.18;100.00;100695.81;5070153;28;20500;-53
2021/10/17 01:30:42;;;;;;;0.30;0.20;;;;;;;5.00;100.00;100695.81;5060987;28;20469;-53
2021/10/17 01:33:09;;;;;;;0.30;0.20;;;;;;;5.20;100.00;100690.53;5068264;28;20450;-53
2021/10/17 01:35:37;;;;;;;0.30;0.20;;;;;;;5.04;100.00;100693.19;5065926;28;20480;-54
2021/10/17 01:38:05;;;;;;;0.30;0.20;;;;;;;5.17;100.00;100686.16;5053486;28;20573;-53
2021/10/17 01:40:33;;;;;;;0.30;0.20;;;;;;;5.20;100.00;100688.78;5062796;28;20492;-53
2021/10/17 01:42:59;;;;;;;0.30;0.20;;;;;;;5.16;100.00;100686.16;5068368;28;20451;-54
2021/10/17 01:45:26;;;;;;;0.30;0.20;;;;;;;5.17;100.00;100683.53;5054863;28;20482;-53
2021/10/17 01:47:53;;;;;;;0.30;0.20;;;;;;;5.19;100.00;100691.44;5067999;28;20462;-54
2021/10/17 01:50:21;;;;;;;0.30;0.20;;;;;;;5.00;100.00;100693.19;5058646;28;20444;-53
2021/10/17 01:52:49;;;;;;;0.50;0.50;;;;;;;5.08;100.00;100682.66;5065538;28;20466;-53
2021/10/17 01:55:15;;;;;;;0.30;0.20;;;;;;;5.08;100.00;100680.91;5064392;28;20452;-54
2021/10/17 01:57:42;;;;;;;0.30;0.20;;;;;;;5.01;100.00;100694.94;5067786;28;20458;-53
2021/10/17 02:00:09;;;;;;;0.30;0.20;;;;;;;4.93;100.00;100689.66;5066811;28;20517;-53
2021/10/17 02:02:35;;;;;;;5.00;3.13;;;;;;;4.89;100.00;100685.28;5060562;28;20533;-54
2021/10/17 02:05:03;;;;;;;0.30;0.20;;;;;;;5.06;100.00;100682.63;5061920;28;20481;-54
2021/10/17 02:07:29;;;;;;;0.30;0.20;;;;;;;4.95;100.00;100681.78;5067714;28;20831;-54
2021/10/17 02:09:56;;;;;;;0.30;0.20;;;;;;;4.88;100.00;100685.28;5066737;28;20442;-53
2021/10/17 02:12:26;;;;;;;0.30;0.20;;;;;;;4.94;100.00;100682.66;5047482;28;20474;-53
2021/10/17 02:14:55;;;;;;;0.30;0.20;;;;;;;4.75;100.00;100681.75;5060716;28;20499;-53
2021/10/17 02:17:22;;;;;;;0.30;0.20;;;;;;;4.86;100.00;100680.00;5050381;28;20466;-53
2021/10/17 02:19:49;;;;;;;0.30;0.20;;;;;;;4.86;100.00;100680.00;5067753;28;20490;-53
2021/10/17 02:22:16;;;;;;;0.30;0.20;;;;;;;4.86;100.00;100677.38;5051499;28;20481;-54
2021/10/17 02:24:42;;;;;;;1.90;1.53;;;;;;;4.82;100.00;100673.00;5049352;28;20831;-54
2021/10/17 02:27:09;;;;;;;0.30;0.20;;;;;;;4.79;100.00;100669.47;5062740;28;20519;-53
2021/10/17 02:29:36;;;;;;;4.73;1.33;;;;;;;4.82;100.00;100672.13;5060415;28;20876;-54
2021/10/17 02:32:03;;;;;;;0.30;0.10;;;;;;;4.74;100.00;100659.81;5065625;28;20474;-54
2021/10/17 02:34:29;;;;;;;0.30;0.20;;;;;;;4.69;100.00;100668.59;5067392;28;20442;-53
2021/10/17 02:36:56;;;;;;;0.30;0.17;;;;;;;4.61;100.00;100668.56;5065860;28;20450;-54
2021/10/17 02:39:23;;;;;;;0.30;0.20;;;;;;;4.57;100.00;100673.84;5059998;28;20479;-54
2021/10/17 02:41:49;;;;;;;0.30;0.10;;;;;;;4.51;100.00;100676.44;5066272;28;20470;-55
2021/10/17 02:44:16;;;;;;;0.30;0.20;;;;;;;4.38;100.00;100670.25;5060039;28;20454;-53
2021/10/17 02:46:42;;;;;;;0.30;0.20;;;;;;;4.43;100.00;100671.16;5064510;28;20482;-53
2021/10/17 02:49:09;;;;;;;0.30;0.20;;;;;;;4.40;100.00;100673.81;5066961;28;20442;-54
2021/10/17 02:51:36;;;;;;;0.30;0.20;;;;;;;4.26;100.00;100673.75;5061902;28;20505;-54
2021/10/17 02:54:03;;;;;;;0.30;0.20;;;;;;;4.33;100.00;100678.16;5059847;28;20561;-54
2021/10/17 02:56:29;;;;;;;0.30;0.20;;;;;;;4.24;100.00;100674.59;5067980;28;20503;-54
2021/10/17 02:58:56;;;;;;;0.30;0.20;;;;;;;4.37;100.00;100682.53;5061661;28;20525;-54
2021/10/17 03:01:22;;;;;;;0.30;0.20;;;;;;;4.15;100.00;100681.59;5045813;28;20526;-54
2021/10/17 03:03:49;;;;;;;0.30;0.20;;;;;;;4.23;100.00;100684.25;5040119;28;20457;-54
2021/10/17 03:06:16;;;;;;;0.30;0.20;;;;;;;4.13;100.00;100683.34;5050928;28;20511;-55
2021/10/17 03:08:42;;;;;;;0.30;0.20;;;;;;;4.20;100.00;100678.97;5040517;28;20454;-52
2021/10/17 03:11:09;;;;;;;0.30;0.20;;;;;;;3.94;100.00;100685.88;5033989;28;20533;-54
2021/10/17 03:13:35;;;;;;;0.30;0.20;;;;;;;4.05;100.00;100684.19;5047350;28;20484;-54
2021/10/17 03:16:02;;;;;;;0.30;0.20;;;;;;;3.99;100.00;100685.06;5045955;28;20462;-54
2021/10/17 03:18:29;;;;;;;0.30;0.20;;;;;;;4.10;100.00;100682.44;5044349;28;20466;-54
2021/10/17 03:20:55;;;;;;;0.40;0.20;;;;;;;4.06;100.00;100680.69;5039754;28;20617;-54
2021/10/17 03:23:22;;;;;;;0.30;0.20;;;;;;;3.94;100.00;100681.50;5049015;28;20500;-53
2021/10/17 03:25:49;;;;;;;0.30;0.20;;;;;;;4.08;100.00;100677.19;5042464;28;20459;-53
2021/10/17 03:28:15;;;;;;;0.30;0.20;;;;;;;4.12;100.00;100676.34;5045901;28;20511;-54
2021/10/17 03:30:42;;;;;;;0.30;0.20;;;;;;;4.25;100.00;100685.16;5046113;28;20456;-54
2021/10/17 03:33:09;;;;;;;0.30;0.20;;;;;;;4.23;100.00;100676.34;5043314;28;20532;-54
2021/10/17 03:35:36;;;;;;;0.40;0.40;;;;;;;4.25;100.00;100677.25;5048747;28;20525;-54
2021/10/17 03:38:02;;;;;;;0.37;0.30;;;;;;;4.25;100.00;100673.72;5047614;28;20537;-53
2021/10/17 03:40:29;;;;;;;0.30;0.20;;;;;;;4.32;100.00;100673.75;5036625;28;20489;-52
2021/10/17 03:42:56;;;;;;;0.30;0.20;;;;;;;4.24;100.00;100674.59;5046669;28;20454;-53
2021/10/17 03:45:23;;;;;;;0.30;0.20;;;;;;;4.48;100.00;100669.41;5042275;28;20972;-53
2021/10/17 03:47:49;;;;;;;3.70;0.83;;;;;;;4.45;100.00;100669.41;5045280;28;20498;-53
2021/10/17 03:50:16;;;;;;;0.30;0.20;;;;;;;4.44;100.00;100670.28;5047384;28;20542;-53
2021/10/17 03:52:43;;;;;;;0.30;0.20;;;;;;;4.50;100.00;100666.78;5051040;28;20526;-54
2021/10/17 03:55:10;;;;;;;0.30;0.20;;;;;;;4.58;100.00;100667.69;5044105;28;20452;-53
2021/10/17 03:57:36;;;;;;;0.30;0.30;;;;;;;4.67;100.00;100668.59;5051602;28;20534;-52
2021/10/17 04:00:04;;;;;;;0.30;0.20;;;;;;;4.59;100.00;100667.69;5045643;28;21031;-53
2021/10/17 04:02:30;;;;;;;0.30;0.20;;;;;;;4.59;100.00;100670.31;5043272;28;20533;-53
2021/10/17 04:04:57;;;;;;;0.30;0.20;;;;;;;4.55;100.00;100665.06;5047959;28;20448;-53
2021/10/17 04:07:24;;;;;;;0.30;0.20;;;;;;;4.52;100.00;100670.28;5048932;28;20454;-52
2021/10/17 04:09:50;;;;;;;0.30;0.20;;;;;;;4.59;100.00;100659.78;5033385;28;20478;-53
2021/10/17 04:12:17;;;;;;;0.30;0.20;;;;;;;4.59;100.00;100659.78;5048088;28;20531;-54
2021/10/17 04:14:44;;;;;;;0.30;0.20;;;;;;;4.51;100.00;100658.88;5043328;28;20463;-53
2021/10/17 04:17:10;;;;;;;0.30;0.20;;;;;;;4.40;100.00;100660.66;5043784;28;20460;-53
2021/10/17 04:19:37;;;;;;;0.30;0.20;;;;;;;4.44;100.00;100660.63;5038441;28;20475;-53
2021/10/17 04:22:03;;;;;;;0.30;0.20;;;;;;;4.41;100.00;100667.66;5047532;28;20546;-53
2021/10/17 04:24:30;;;;;;;0.30;0.20;;;;;;;4.46;100.00;100669.41;5035449;28;20460;-54
2021/10/17 04:26:56;;;;;;;0.30;0.20;;;;;;;4.43;100.00;100671.16;5050930;28;20510;-54
2021/10/17 04:29:23;;;;;;;0.30;0.20;;;;;;;4.32;100.00;100662.38;5043905;28;20494;-53
2021/10/17 04:31:50;;;;;;;1.17;1.07;;;;;;;4.28;100.00;100666.75;5039754;28;20478;-54
2021/10/17 04:34:16;;;;;;;0.30;0.20;;;;;;;4.21;100.00;100664.06;5044541;28;20941;-54
2021/10/17 04:36:43;;;;;;;0.30;0.20;;;;;;;4.21;100.00;100670.22;5044003;28;20457;-54
2021/10/17 04:39:10;;;;;;;0.30;0.20;;;;;;;4.18;100.00;100670.22;5034320;28;21078;-54
2021/10/17 04:41:38;;;;;;;0.30;0.20;;;;;;;4.27;100.00;100674.63;5052147;28;20887;-51
2021/10/17 04:44:05;;;;;;;0.30;0.20;;;;;;;4.34;100.00;100668.50;5041404;28;20447;-54
2021/10/17 04:46:31;;;;;;;0.30;0.20;;;;;;;4.23;100.00;100663.19;5054910;28;20452;-54
2021/10/17 04:48:58;;;;;;;0.30;0.10;;;;;;;4.30;100.00;100664.13;5046823;28;20459;-53
2021/10/17 04:51:25;;;;;;;0.30;0.10;;;;;;;4.44;100.00;100657.13;5052796;28;20502;-54
2021/10/17 04:53:52;;;;;;;0.30;0.20;;;;;;;4.46;100.00;100661.53;5053141;28;20447;-53
2021/10/17 04:56:18;;;;;;;0.30;0.20;;;;;;;4.40;100.00;100661.53;5043241;28;20447;-55
2021/10/17 04:58:45;;;;;;;0.30;0.20;;;;;;;4.54;100.00;100664.19;5057268;28;20829;-55
2021/10/17 05:01:12;;;;;;;0.30;0.20;;;;;;;4.66;100.00;100661.56;5047118;28;21229;-55
2021/10/17 05:03:39;;;;;;;0.30;0.20;;;;;;;4.60;100.00;100658.91;5043394;28;20529;-54
2021/10/17 05:06:06;;;;;;;0.30;0.20;;;;;;;4.59;100.00;100659.78;5051839;28;20457;-55
2021/10/17 05:08:32;;;;;;;0.30;0.10;;;;;;;4.68;100.00;100662.44;5044086;28;20451;-55
2021/10/17 05:10:59;;;;;;;2.57;2.47;;;;;;;4.69;100.00;100668.59;5049278;28;20467;-55
2021/10/17 05:13:26;;;;;;;0.30;0.20;;;;;;;4.71;100.00;100661.56;5046294;28;20483;-55
2021/10/17 05:15:53;;;;;;;0.30;0.10;;;;;;;4.92;100.00;100663.31;5047278;28;20451;-55
2021/10/17 05:18:20;;;;;;;0.30;0.10;;;;;;;4.97;100.00;100672.13;5049163;28;20525;-54
2021/10/17 05:20:47;;;;;;;1.20;1.20;;;;;;;4.97;100.00;100665.09;5050392;28;20487;-55
2021/10/17 05:23:18;;;;;;;0.30;0.20;;;;;;;4.90;100.00;100658.06;5049349;28;20603;-54
2021/10/17 05:25:45;;;;;;;0.30;0.20;;;;;;;4.92;100.00;100661.56;5047680;28;20487;-55
2021/10/17 05:28:11;;;;;;;0.30;0.10;;;;;;;4.91;100.00;100675.63;5052087;28;20480;-54
2021/10/17 05:30:38;;;;;;;0.30;0.20;;;;;;;4.97;100.00;100678.28;5045487;28;20448;-55
2021/10/17 05:33:05;;;;;;;0.30;0.20;;;;;;;5.01;100.00;100674.75;5041215;28;20453;-55
2021/10/17 05:35:31;;;;;;;0.30;0.20;;;;;;;5.15;100.00;100684.41;5046532;28;20532;-55
2021/10/17 05:37:58;;;;;;;0.30;0.30;;;;;;;5.10;100.00;100686.19;5046269;28;20481;-55
2021/10/17 05:40:25;;;;;;;0.30;0.20;;;;;;;4.96;100.00;100670.38;5051130;28;21018;-55
2021/10/17 05:42:52;;;;;;;0.30;0.20;;;;;;;5.11;100.00;100677.41;5048901;28;20466;-55
2021/10/17 05:45:18;;;;;;;0.30;0.20;;;;;;;5.06;100.00;100680.00;5039310;28;20459;-54
2021/10/17 05:47:45;;;;;;;0.30;0.10;;;;;;;5.32;100.00;100687.91;5046575;28;20509;-55
2021/10/17 05:50:11;;;;;;;0.30;0.10;;;;;;;5.25;100.00;100684.41;5041374;28;20486;-55
2021/10/17 05:52:38;;;;;;;0.30;0.20;;;;;;;5.16;100.00;100688.78;5053378;28;20502;-55
2021/10/17 05:55:05;;;;;;;0.30;0.20;;;;;;;5.15;100.00;100695.81;5037580;28;20452;-55
2021/10/17 05:57:32;;;;;;;0.30;0.20;;;;;;;5.15;100.00;100698.47;5055514;28;20454;-55
2021/10/17 05:59:58;;;;;;;0.30;0.20;;;;;;;5.13;100.00;100699.34;5064774;28;20481;-55
2021/10/17 06:02:25;;;;;;;0.30;0.20;;;;;;;5.19;100.00;100702.84;5060980;28;20523;-54
2021/10/17 06:04:51;;;;;;;0.30;0.20;;;;;;;5.13;100.00;100697.59;5067108;28;20563;-56
2021/10/17 06:07:19;;;;;;;0.30;0.20;;;;;;;5.34;100.00;100707.22;5060689;28;20446;-55
2021/10/17 06:09:46;;;;;;;0.30;0.30;;;;;;;5.24;100.00;100710.78;5054287;28;20502;-54
2021/10/17 06:12:12;;;;;;;0.30;0.20;;;;;;;5.28;100.00;100713.41;5043876;28;20524;-54
2021/10/17 06:14:39;;;;;;;0.40;0.40;;;;;;;5.39;100.00;100715.16;5043681;28;20941;-56
2021/10/17 06:17:05;;;;;;;0.30;0.10;;;;;;;5.43;100.00;100717.78;5050116;28;20463;-54
2021/10/17 06:19:32;;;;;;;0.30;0.20;;;;;;;5.57;100.00;100721.28;5038130;28;20519;-54
2021/10/17 06:22:03;;;;;;;0.30;0.20;;;;;;;5.57;100.00;100718.63;5054541;28;21079;-54
2021/10/17 06:24:31;;;;;;;0.30;0.20;;;;;;;5.70;100.00;100726.53;5047732;28;20455;-55
2021/10/17 06:26:58;;;;;;;0.30;0.20;;;;;;;5.76;100.00;100721.25;5050947;28;20504;-53
2021/10/17 06:29:25;;;;;;;0.30;0.10;;;;;;;5.79;100.00;100723.88;5061118;28;20508;-55
2021/10/17 06:31:52;;;;;;;0.30;0.10;;;;;;;5.73;100.00;100723.88;5045380;28;20480;-55
2021/10/17 06:34:19;;;;;;;0.30;0.20;;;;;;;5.80;100.00;100720.38;5051400;28;20451;-54
2021/10/17 06:36:47;;;;;;;0.30;0.20;;;;;;;5.94;100.00;100730.03;5060576;28;20452;-56
2021/10/17 06:39:14;;;;;;;1.33;1.23;;;;;;;5.98;100.00;100727.38;5063035;28;20453;-54
2021/10/17 06:41:40;;;;;;;0.30;0.20;;;;;;;6.00;100.00;100721.22;5048165;28;20508;-55
2021/10/17 06:44:07;;;;;;;0.30;0.20;;;;;;;6.45;100.00;100722.81;5060451;28;20511;-55
2021/10/17 06:46:34;;;;;;;0.30;0.20;;;;;;;6.20;100.00;100727.31;5051965;28;20473;-55
2021/10/17 06:49:00;;;;;;;0.30;0.20;;;;;;;6.12;100.00;100728.22;5058321;28;20968;-56
2021/10/17 06:51:27;;;;;;;0.30;0.20;;;;;;;6.21;100.00;100729.06;5065595;28;20523;-56
2021/10/17 06:53:53;;;;;;;0.30;0.20;;;;;;;6.31;100.00;100727.28;5056648;28;20506;-55
2021/10/17 06:56:20;;;;;;;0.40;0.30;;;;;;;6.32;100.00;100736.06;5052774;28;20454;-56
2021/10/17 06:58:46;;;;;;;3.10;1.43;;;;;;;6.39;100.00;100745.72;5061036;28;20947;-56
2021/10/17 07:01:13;;;;;;;0.30;0.20;;;;;;;6.45;100.00;100735.13;5065358;28;20494;-55
2021/10/17 07:03:40;;;;;;;0.30;0.20;;;;;;;6.49;100.00;100739.50;5045097;28;20814;-55
2021/10/17 07:06:07;;;;;;;0.30;0.20;;;;;;;6.44;100.00;100738.63;5049619;28;20446;-55
2021/10/17 07:08:33;;;;;;;0.30;0.20;;;;;;;6.40;100.00;100743.06;5059801;28;20446;-55
2021/10/17 07:11:01;;;;;;;0.30;0.20;;;;;;;6.52;100.00;100740.38;5042673;28;20475;-54
2021/10/17 07:13:27;;;;;;;0.40;0.30;;;;;;;6.60;100.00;100742.09;5065922;28;20454;-55
2021/10/17 07:15:54;;;;;;;0.30;0.20;;;;;;;6.61;100.00;100744.75;5042894;28;20452;-54
2021/10/17 07:18:21;;;;;;;0.30;0.20;;;;;;;6.64;100.00;100746.47;5061104;28;20507;-55
2021/10/17 07:20:49;;;;;;;1.23;1.23;;;;;;;6.64;100.00;100746.47;5053406;28;20502;-55
2021/10/17 07:23:16;;;;;;;0.30;0.20;;;;;;;6.74;100.00;100757.00;5060336;28;20451;-54
2021/10/17 07:25:44;;;;;;;0.30;0.20;;;;;;;6.71;100.00;100742.91;5051678;28;20450;-54
2021/10/17 07:28:11;;;;;;;0.30;0.20;;;;;;;6.83;100.00;100748.13;5059705;28;20503;-55
2021/10/17 07:30:38;;;;;;;0.47;0.47;;;;;;;6.84;100.00;100757.78;5062901;28;20443;-55
2021/10/17 07:33:04;;;;;;;0.30;0.20;;;;;;;6.78;100.00;100756.09;5067583;28;20446;-56
2021/10/17 07:35:31;;;;;;;0.80;0.80;;;;;;;7.00;100.00;100754.19;5056959;28;20455;-55
2021/10/17 07:37:58;;;;;;;0.30;0.20;;;;;;;7.05;100.00;100756.81;5056803;28;20946;-56
2021/10/17 07:40:25;;;;;;;0.30;0.20;;;;;;;7.07;100.00;100763.81;5062649;28;20969;-56
2021/10/17 07:42:51;;;;;;;0.50;0.47;;;;;;;7.32;100.00;100761.88;5051160;28;20519;-55
2021/10/17 07:45:18;;;;;;;0.30;0.20;;;;;;;7.46;100.00;100755.59;5062646;28;20489;-57
2021/10/17 07:47:45;;;;;;;0.30;0.20;;;;;;;7.47;100.00;100755.59;5050369;28;20804;-56
2021/10/17 07:50:11;;;;;;;0.30;0.20;;;;;;;7.77;100.00;100756.19;5062559;28;20502;-56
2021/10/17 07:52:38;;;;;;;1.20;1.20;;;;;;;8.09;100.00;100747.97;5052718;28;20824;-56
2021/10/17 07:55:06;;;;;;;0.30;0.20;;;;;;;8.42;100.00;100749.34;5058048;28;20458;-56
2021/10/17 07:57:50;;;;;;;0.30;0.20;;;;;;;8.35;100.00;100748.53;5061678;28;20474;-55
2021/10/17 08:00:22;;;;;;;0.40;0.40;;;;;;;8.42;100.00;100741.41;5046067;28;20521;-55
2021/10/17 08:02:49;;;;;;;0.30;0.20;;;;;;;8.33;100.00;100739.69;5047293;28;20970;-55
2021/10/17 08:05:16;;;;;;;0.30;0.20;;;;;;;8.22;100.00;100737.22;5058739;28;20509;-55
2021/10/17 08:07:43;;;;;;;0.30;0.20;;;;;;;8.38;100.00;100732.63;5064913;28;20485;-55
2021/10/17 08:10:11;;;;;;;0.30;0.20;;;;;;;8.44;100.00;100734.31;5041141;28;20452;-55
2021/10/17 08:12:38;;;;;;;0.30;0.20;;;;;;;8.49;100.00;100735.13;5061166;28;20498;-55
2021/10/17 08:15:06;;;;;;;0.30;0.20;;;;;;;8.65;100.00;100733.16;5050539;28;20456;-55
2021/10/17 08:17:34;;;;;;;0.50;0.50;;;;;;;8.68;100.00;100730.47;5048093;28;20464;-55
2021/10/17 08:20:03;;;;;;;0.30;0.20;;;;;;;8.69;100.00;100733.09;5054178;28;20486;-55
2021/10/17 08:22:29;;;;;;;0.40;0.30;;;;;;;8.81;100.00;100735.56;5055179;28;20478;-55
2021/10/17 08:24:56;;;;;;;0.30;0.30;;;;;;;8.88;100.00;100737.22;5038747;28;20446;-55
2021/10/17 08:27:22;;;;;;;0.40;0.30;;;;;;;8.90;100.00;100737.19;5062232;28;20499;-56
2021/10/17 08:29:49;;;;;;;0.30;0.20;;;;;;;9.13;100.00;100739.50;5058518;28;20864;-56
2021/10/17 08:32:16;;;;;;;0.30;0.20;;;;;;;9.07;100.00;100745.81;5061549;28;20470;-55
2021/10/17 08:34:43;;;;;;;0.30;0.20;;;;;;;9.42;100.00;100736.41;5047968;28;20457;-56
2021/10/17 08:37:11;;;;;;;0.30;0.20;;;;;;;9.53;100.00;100736.22;5064668;28;20450;-56
2021/10/17 08:39:39;;;;;;;0.30;0.20;;;;;;;9.47;100.00;100742.53;5054326;28;20497;-56
2021/10/17 08:42:06;;;;;;;0.40;0.30;;;;;;;9.49;100.00;100744.25;5041417;28;20530;-55
2021/10/17 08:44:32;;;;;;;0.40;0.30;;;;;;;9.62;100.00;100746.69;5059294;28;20900;-55
2021/10/17 08:47:00;;;;;;;0.50;0.50;;;;;;;9.72;100.00;100749.13;5063595;28;20454;-56
2021/10/17 08:49:28;;;;;;;0.60;0.60;;;;;;;9.78;100.00;100749.03;5042226;28;20894;-54
2021/10/17 08:51:55;;;;;;;0.30;0.20;;;;;;;9.86;100.00;100748.88;5040386;28;20558;-52
2021/10/17 08:54:21;;;;;;;0.30;0.20;;;;;;;10.06;100.00;100746.75;5063072;28;20477;-53
2021/10/17 08:56:48;;;;;;;0.30;0.20;;;;;;;10.25;100.00;100741.97;5059599;28;20451;-53
2021/10/17 08:59:15;;;;;;;1.90;1.80;;;;;;;10.24;100.00;100744.66;5057062;28;20875;-54
2021/10/17 09:01:42;;;;;;;0.47;0.47;;;;;;;10.37;100.00;100744.38;5059475;28;20848;-53
2021/10/17 09:04:10;;;;;;;0.73;0.73;;;;;;;10.47;100.00;100747.75;5066801;28;20548;-54
2021/10/17 09:06:38;;;;;;;0.30;0.20;;;;;;;10.46;100.00;100750.44;5047000;28;20452;-53
2021/10/17 09:09:07;;;;;;;0.30;0.20;;;;;;;10.57;100.00;100751.09;5038328;28;20454;-54
2021/10/17 09:11:45;;;;;;;0.30;0.20;;;;;;;10.50;100.00;100746.78;5051966;28;20516;-54
2021/10/17 09:14:18;;;;;;;0.30;0.20;;;;;;;10.53;100.00;100744.06;5052543;28;20449;-55
2021/10/17 09:16:47;;;;;;;0.30;0.20;;;;;;;10.66;100.00;100741.09;5047601;28;20459;-53
2021/10/17 09:19:16;;;;;;;0.60;0.60;;;;;;;10.71;100.00;100733.06;5059957;28;20455;-54
2021/10/17 09:22:07;;;;;;;0.30;0.20;;;;;;;10.55;100.00;100736.94;5059803;28;20493;-54
2021/10/17 09:24:42;;;;;;;0.30;0.20;;;;;;;10.56;100.00;100730.72;5056381;28;20491;-53
2021/10/17 09:27:24;;;;;;;4.00;1.57;;;;;;;10.55;100.00;100734.25;5047861;28;20445;-55
2021/10/17 09:29:54;;;;;;;0.50;0.50;;;;;;;10.77;100.00;100732.91;5047898;28;20946;-55
2021/10/17 09:32:25;;;;;;;0.30;0.20;;;;;;;10.92;100.00;100729.03;5063456;28;20470;-54
2021/10/17 09:34:59;;;;;;;8.60;1.17;;;;;;;11.13;100.00;100736.53;5061999;28;21015;-55
2021/10/17 09:37:39;;;;;;;0.30;0.20;;;;;;;11.33;100.00;100736.03;5062554;28;20529;-55
2021/10/17 09:40:16;;;;;;;0.30;0.20;;;;;;;11.64;99.84;100745.91;5050977;28;20457;-55
2021/10/17 09:43:03;;;;;;;0.60;0.60;;;;;;;11.91;99.31;100737.22;5060918;28;20527;-55
2021/10/17 09:45:30;;;;;;;0.40;0.30;;;;;;;11.97;97.19;100736.19;5062363;28;20483;-55
2021/10/17 09:47:57;;;;;;;0.30;0.20;;;;;;;12.09;96.89;100730.53;5071968;28;20989;-55
2021/10/17 09:50:24;;;;;;;0.30;0.20;;;;;;;12.39;96.57;100729.66;5062065;28;20446;-55
2021/10/17 09:52:53;;;;;;;8.67;1.93;;;;;;;12.59;95.22;100736.19;5067975;28;20467;-55
2021/10/17 09:55:20;;;;;;;0.30;0.20;;;;;;;12.73;94.57;100729.53;5066434;28;20868;-53
2021/10/17 09:57:47;;;;;;;0.63;0.63;;;;;;;12.78;95.16;100724.06;5067828;28;20447;-55
2021/10/17 10:00:13;;;;;;;0.73;0.73;;;;;;;12.89;92.77;100727.28;5068108;28;20454;-54
2021/10/17 10:02:44;;;;;;;0.30;0.20;;;;;;;12.90;91.75;100728.16;5061467;28;20474;-54
2021/10/17 10:05:14;;;;;;;3.73;0.77;;;;;;;12.96;91.38;100733.28;5061146;28;20500;-54
2021/10/17 10:07:42;;;;;;;0.30;0.20;;;;;;;12.97;91.80;100729.69;5060580;28;20456;-53
2021/10/17 10:10:14;;;;;;;0.30;0.20;;;;;;;13.19;91.62;100724.59;5063330;28;20999;-53
2021/10/17 10:12:43;;;;;;;0.40;0.40;;;;;;;13.25;90.27;100725.25;5061380;28;20473;-53
2021/10/17 10:15:10;;;;;;;5.70;1.17;;;;;;;13.12;91.17;100737.22;5060758;28;20473;-53
2021/10/17 10:17:42;;;;;;;0.33;0.23;;;;;;;13.04;89.53;100733.94;5059834;28;20465;-53
2021/10/17 10:20:10;;;;;;;0.30;0.20;;;;;;;13.10;88.96;100730.19;5060514;28;20445;-53
2021/10/17 10:22:37;;;;;;;0.60;0.60;;;;;;;13.16;89.46;100727.34;5062270;28;20487;-53
2021/10/17 10:25:04;;;;;;;0.70;0.70;;;;;;;12.83;89.63;100729.25;5048065;28;21020;-53
2021/10/17 10:27:34;;;;;;;0.30;0.20;;;;;;;13.10;91.44;100731.06;5066505;28;20830;-53
2021/10/17 10:30:25;;;;;;;0.30;0.20;;;;;;;13.11;89.99;100730.13;5053375;28;20504;-53
2021/10/17 10:33:10;;;;;;;0.30;0.20;;;;;;;12.84;90.19;100725.66;5060386;28;20463;-53
2021/10/17 10:35:57;;;;;;;0.30;0.20;;;;;;;13.03;90.41;100725.06;5063285;28;20500;-53
2021/10/17 10:38:45;;;;;;;0.40;0.30;;;;;;;13.13;89.84;100722.06;5039775;28;20921;-53
2021/10/17 10:41:16;;;;;;;1.03;0.40;;;;;;;13.26;88.32;100718.97;5063915;28;20494;-53
2021/10/17 10:43:43;;;;;;;0.40;0.40;;;;;;;13.52;87.23;100718.13;5058662;28;20608;-53
2021/10/17 10:46:10;;;;;;;0.33;0.20;;;;;;;13.46;86.75;100721.00;5046690;28;20503;-53
2021/10/17 10:48:47;;;;;;;0.30;0.20;;;;;;;13.21;85.99;100720.06;5063095;28;20537;-53
2021/10/17 10:51:40;;;;;;;0.30;0.20;;;;;;;13.37;86.79;100717.75;5067392;28;20494;-53
2021/10/17 10:54:27;;;;;;;0.30;0.20;;;;;;;13.55;85.26;100723.34;5056013;28;20451;-53
2021/10/17 10:56:55;;;;;;;0.30;0.20;;;;;;;13.63;85.84;100717.75;5065757;28;20446;-53
2021/10/17 10:59:25;;;;;;;0.30;0.20;;;;;;;13.89;85.42;100712.38;5053765;28;20497;-53
2021/10/17 11:01:54;;;;;;;0.30;0.30;;;;;;;13.74;85.93;100714.72;5060051;28;20493;-53
2021/10/17 11:04:55;;;;;;;0.30;0.20;;;;;;;13.91;84.81;100704.31;5047364;28;20480;-52
2021/10/17 11:07:23;;;;;;;0.30;0.20;;;;;;;13.57;85.21;100710.84;5060017;28;20942;-53
2021/10/17 11:09:52;;;;;;;0.30;0.20;;;;;;;13.88;85.93;100702.63;5062120;28;20830;-52
2021/10/17 11:12:40;;;;;;;0.30;0.20;;;;;;;13.81;85.91;100701.09;5057060;28;20470;-53
2021/10/17 11:15:10;;;;;;;0.30;0.20;;;;;;;13.97;84.44;100705.88;5050072;28;20529;-52
2021/10/17 11:17:37;;;;;;;0.30;0.20;;;;;;;13.88;83.95;100705.31;5054193;28;20490;-52
2021/10/17 11:20:05;;;;;;;0.30;0.20;;;;;;;13.86;84.58;100703.63;5062133;28;20450;-52
2021/10/17 11:22:35;;;;;;;0.30;0.20;;;;;;;14.23;84.08;100700.47;5049875;28;20491;-53
2021/10/17 11:25:03;;;;;;;0.40;0.20;;;;;;;14.50;83.23;100693.22;5047872;28;20454;-52
2021/10/17 11:27:30;;;;;;;0.30;0.20;;;;;;;14.62;79.43;100690.09;5061837;28;20508;-52
2021/10/17 11:29:56;;;;;;;0.30;0.20;;;;;;;14.34;74.71;100690.25;5050131;28;20507;-52